Terminal Aerodrome Forecast
Issued by NWS Portland, OR

Current Version | Previous Version | Text Only | Print | Product List | Glossary On
Versions: 1 2 3 4 5 6 7 8 9 10 11 12 13 14 15 16 17 18 19 20 21 22 23 24 25 26 27 28 29 30 31 32 33 34 35 36 37
000
FTUS46 KPQR 011733
TAFSLE
TAF
KSLE 011733Z 0118/0218 18005KT 6SM -RA BR SCT025 BKN040 OVC080
     FM011900 17007KT P6SM -RA SCT015 OVC025
     FM012300 18008G15KT P6SM -SHRA SCT015 BKN025 OVC040
     FM020400 16005KT P6SM BKN020 OVC040
     FM020600 16003KT 4SM BR BKN007 OVC020=

USA.gov is the U.S. government's official web portal to all federal, state and local government web resources and services.